sensor_id;sensor_type;location;lat;lon;timestamp;temperature;humidity
5578;DHT22;2811;51.900;10.734;2022-10-31T00:01:24;14.90;99.90
5578;DHT22;2811;51.900;10.734;2022-10-31T00:03:51;14.80;99.90
5578;DHT22;2811;51.900;10.734;2022-10-31T00:06:18;14.90;99.90
5578;DHT22;2811;51.900;10.734;2022-10-31T00:08:45;15.00;99.90
5578;DHT22;2811;51.900;10.734;2022-10-31T00:11:12;15.30;99.90
5578;DHT22;2811;51.900;10.734;2022-10-31T00:13:40;15.00;99.90
5578;DHT22;2811;51.900;10.734;2022-10-31T00:16:13;15.00;99.90
5578;DHT22;2811;51.900;10.734;2022-10-31T00:18:40;15.20;99.90
5578;DHT22;2811;51.900;10.734;2022-10-31T00:21:07;15.00;99.90
5578;DHT22;2811;51.900;10.734;2022-10-31T00:23:34;15.00;99.90
5578;DHT22;2811;51.900;10.734;2022-10-31T00:26:01;15.00;99.90
5578;DHT22;2811;51.900;10.734;2022-10-31T00:28:29;15.10;99.90
5578;DHT22;2811;51.900;10.734;2022-10-31T00:30:59;15.10;99.90
5578;DHT22;2811;51.900;10.734;2022-10-31T00:33:26;15.10;99.90
5578;DHT22;2811;51.900;10.734;2022-10-31T00:35:53;15.00;99.90
5578;DHT22;2811;51.900;10.734;2022-10-31T00:38:20;15.10;99.90
5578;DHT22;2811;51.900;10.734;2022-10-31T00:40:47;15.00;99.90
5578;DHT22;2811;51.900;10.734;2022-10-31T00:43:13;15.00;99.90
5578;DHT22;2811;51.900;10.734;2022-10-31T00:45:41;14.90;99.90
5578;DHT22;2811;51.900;10.734;2022-10-31T00:48:10;14.80;99.90
5578;DHT22;2811;51.900;10.734;2022-10-31T00:50:37;14.70;99.90
5578;DHT22;2811;51.900;10.734;2022-10-31T00:53:04;14.60;99.90
5578;DHT22;2811;51.900;10.734;2022-10-31T00:55:32;14.60;99.90
5578;DHT22;2811;51.900;10.734;2022-10-31T00:57:59;14.50;99.90
5578;DHT22;2811;51.900;10.734;2022-10-31T01:00:25;14.50;99.90
5578;DHT22;2811;51.900;10.734;2022-10-31T01:02:52;14.40;99.90
5578;DHT22;2811;51.900;10.734;2022-10-31T01:05:20;14.40;99.90
5578;DHT22;2811;51.900;10.734;2022-10-31T01:07:47;14.30;99.90
5578;DHT22;2811;51.900;10.734;2022-10-31T01:10:14;14.30;99.90
5578;DHT22;2811;51.900;10.734;2022-10-31T01:12:43;14.20;99.90
5578;DHT22;2811;51.900;10.734;2022-10-31T01:15:12;14.10;99.90
5578;DHT22;2811;51.900;10.734;2022-10-31T01:17:39;14.10;99.90
5578;DHT22;2811;51.900;10.734;2022-10-31T01:20:08;14.00;99.90
5578;DHT22;2811;51.900;10.734;2022-10-31T01:22:36;14.10;99.90
5578;DHT22;2811;51.900;10.734;2022-10-31T01:25:04;14.10;99.90
5578;DHT22;2811;51.900;10.734;2022-10-31T01:27:31;14.10;99.90
5578;DHT22;2811;51.900;10.734;2022-10-31T01:29:58;14.00;99.90
5578;DHT22;2811;51.900;10.734;2022-10-31T01:32:26;14.10;99.90
5578;DHT22;2811;51.900;10.734;2022-10-31T01:34:54;14.10;99.90
5578;DHT22;2811;51.900;10.734;2022-10-31T01:37:21;14.10;99.90
5578;DHT22;2811;51.900;10.734;2022-10-31T01:39:49;14.10;99.90
5578;DHT22;2811;51.900;10.734;2022-10-31T01:42:19;14.10;99.90
5578;DHT22;2811;51.900;10.734;2022-10-31T01:44:59;14.30;99.90
5578;DHT22;2811;51.900;10.734;2022-10-31T01:47:43;14.10;99.90
5578;DHT22;2811;51.900;10.734;2022-10-31T01:50:27;14.10;99.90
5578;DHT22;2811;51.900;10.734;2022-10-31T01:52:55;14.10;99.90
5578;DHT22;2811;51.900;10.734;2022-10-31T01:55:26;14.10;99.90
5578;DHT22;2811;51.900;10.734;2022-10-31T01:57:57;14.20;99.90
5578;DHT22;2811;51.900;10.734;2022-10-31T02:00:25;14.40;99.90
5578;DHT22;2811;51.900;10.734;2022-10-31T02:02:52;14.40;99.90
5578;DHT22;2811;51.900;10.734;2022-10-31T02:05:23;14.50;99.90
5578;DHT22;2811;51.900;10.734;2022-10-31T02:07:54;14.70;99.90
5578;DHT22;2811;51.900;10.734;2022-10-31T02:10:23;14.70;99.90
5578;DHT22;2811;51.900;10.734;2022-10-31T02:12:51;14.60;99.90
5578;DHT22;2811;51.900;10.734;2022-10-31T02:15:19;14.60;99.90
5578;DHT22;2811;51.900;10.734;2022-10-31T02:17:46;14.60;99.90
5578;DHT22;2811;51.900;10.734;2022-10-31T02:20:16;14.50;99.90
5578;DHT22;2811;51.900;10.734;2022-10-31T02:23:10;14.40;99.90
5578;DHT22;2811;51.900;10.734;2022-10-31T02:26:12;14.30;99.90
5578;DHT22;2811;51.900;10.734;2022-10-31T02:28:52;14.20;99.90
5578;DHT22;2811;51.900;10.734;2022-10-31T02:31:31;14.20;99.90
5578;DHT22;2811;51.900;10.734;2022-10-31T02:34:05;14.20;99.90
5578;DHT22;2811;51.900;10.734;2022-10-31T02:36:38;14.30;99.90
5578;DHT22;2811;51.900;10.734;2022-10-31T02:39:12;14.30;99.90
5578;DHT22;2811;51.900;10.734;2022-10-31T02:41:48;14.30;99.90
5578;DHT22;2811;51.900;10.734;2022-10-31T02:44:21;14.40;99.90
5578;DHT22;2811;51.900;10.734;2022-10-31T02:46:54;14.60;99.90
5578;DHT22;2811;51.900;10.734;2022-10-31T02:49:27;14.40;99.90
5578;DHT22;2811;51.900;10.734;2022-10-31T02:51:57;14.50;99.90
5578;DHT22;2811;51.900;10.734;2022-10-31T02:54:26;14.60;99.90
5578;DHT22;2811;51.900;10.734;2022-10-31T02:56:58;14.60;99.90
5578;DHT22;2811;51.900;10.734;2022-10-31T02:59:28;14.60;99.90
5578;DHT22;2811;51.900;10.734;2022-10-31T03:02:09;14.60;99.90
5578;DHT22;2811;51.900;10.734;2022-10-31T03:07:42;14.60;99.90
5578;DHT22;2811;51.900;10.734;2022-10-31T03:10:16;14.60;99.90
5578;DHT22;2811;51.900;10.734;2022-10-31T03:12:50;14.70;99.90
5578;DHT22;2811;51.900;10.734;2022-10-31T03:15:24;14.70;99.90
5578;DHT22;2811;51.900;10.734;2022-10-31T03:17:57;14.60;99.90
5578;DHT22;2811;51.900;10.734;2022-10-31T03:20:29;14.70;99.90
5578;DHT22;2811;51.900;10.734;2022-10-31T03:22:57;14.80;99.90
5578;DHT22;2811;51.900;10.734;2022-10-31T03:25:26;14.90;99.90
5578;DHT22;2811;51.900;10.734;2022-10-31T03:27:54;14.90;99.90
5578;DHT22;2811;51.900;10.734;2022-10-31T03:30:21;14.80;99.90
5578;DHT22;2811;51.900;10.734;2022-10-31T03:32:50;14.70;99.90
5578;DHT22;2811;51.900;10.734;2022-10-31T03:35:22;14.70;99.90
5578;DHT22;2811;51.900;10.734;2022-10-31T03:37:49;14.60;99.90
5578;DHT22;2811;51.900;10.734;2022-10-31T03:40:19;14.60;99.90
5578;DHT22;2811;51.900;10.734;2022-10-31T03:42:53;14.60;99.90
5578;DHT22;2811;51.900;10.734;2022-10-31T03:45:23;14.60;99.90
5578;DHT22;2811;51.900;10.734;2022-10-31T03:47:51;14.60;99.90
5578;DHT22;2811;51.900;10.734;2022-10-31T03:50:21;14.70;99.90
5578;DHT22;2811;51.900;10.734;2022-10-31T03:52:54;14.50;99.90
5578;DHT22;2811;51.900;10.734;2022-10-31T03:55:26;14.50;99.90
5578;DHT22;2811;51.900;10.734;2022-10-31T03:57:58;14.50;99.90
5578;DHT22;2811;51.900;10.734;2022-10-31T04:00:26;14.60;99.90
5578;DHT22;2811;51.900;10.734;2022-10-31T04:02:57;14.60;99.90
5578;DHT22;2811;51.900;10.734;2022-10-31T04:05:26;14.60;99.90
5578;DHT22;2811;51.900;10.734;2022-10-31T04:07:55;14.60;99.90
5578;DHT22;2811;51.900;10.734;2022-10-31T04:10:26;14.60;99.90
5578;DHT22;2811;51.900;10.734;2022-10-31T04:12:58;14.70;99.90
5578;DHT22;2811;51.900;10.734;2022-10-31T04:15:27;14.70;99.90
5578;DHT22;2811;51.900;10.734;2022-10-31T04:17:57;14.70;99.90
5578;DHT22;2811;51.900;10.734;2022-10-31T04:20:33;14.60;99.90
5578;DHT22;2811;51.900;10.734;2022-10-31T04:23:01;14.60;99.90
5578;DHT22;2811;51.900;10.734;2022-10-31T04:25:28;14.50;99.90
5578;DHT22;2811;51.900;10.734;2022-10-31T04:27:55;14.40;99.90
5578;DHT22;2811;51.900;10.734;2022-10-31T04:30:22;14.40;99.90
5578;DHT22;2811;51.900;10.734;2022-10-31T04:32:48;14.40;99.90
5578;DHT22;2811;51.900;10.734;2022-10-31T04:35:15;14.40;99.90
5578;DHT22;2811;51.900;10.734;2022-10-31T04:37:43;14.30;99.90
5578;DHT22;2811;51.900;10.734;2022-10-31T04:40:11;14.30;99.90
5578;DHT22;2811;51.900;10.734;2022-10-31T04:42:38;14.30;99.90
5578;DHT22;2811;51.900;10.734;2022-10-31T04:45:05;14.20;99.90
5578;DHT22;2811;51.900;10.734;2022-10-31T04:47:33;14.30;99.90
5578;DHT22;2811;51.900;10.734;2022-10-31T04:50:00;14.30;99.90
5578;DHT22;2811;51.900;10.734;2022-10-31T04:52:27;14.20;99.90
5578;DHT22;2811;51.900;10.734;2022-10-31T04:54:55;14.20;99.90
5578;DHT22;2811;51.900;10.734;2022-10-31T04:57:22;14.10;99.90
5578;DHT22;2811;51.900;10.734;2022-10-31T04:59:48;14.10;99.90
5578;DHT22;2811;51.900;10.734;2022-10-31T05:02:15;14.00;99.90
5578;DHT22;2811;51.900;10.734;2022-10-31T05:04:42;13.90;99.90
5578;DHT22;2811;51.900;10.734;2022-10-31T05:07:09;13.80;99.90
5578;DHT22;2811;51.900;10.734;2022-10-31T05:09:35;13.80;99.90
5578;DHT22;2811;51.900;10.734;2022-10-31T05:12:04;13.70;99.90
5578;DHT22;2811;51.900;10.734;2022-10-31T05:14:30;13.80;99.90
5578;DHT22;2811;51.900;10.734;2022-10-31T05:16:57;13.80;99.90
5578;DHT22;2811;51.900;10.734;2022-10-31T05:19:24;13.80;99.90
5578;DHT22;2811;51.900;10.734;2022-10-31T05:21:51;13.90;99.90
5578;DHT22;2811;51.900;10.734;2022-10-31T05:24:17;13.80;99.90
5578;DHT22;2811;51.900;10.734;2022-10-31T05:26:47;13.80;99.90
5578;DHT22;2811;51.900;10.734;2022-10-31T05:29:15;13.80;99.90
5578;DHT22;2811;51.900;10.734;2022-10-31T05:31:42;13.70;99.90
5578;DHT22;2811;51.900;10.734;2022-10-31T05:34:08;13.60;99.90
5578;DHT22;2811;51.900;10.734;2022-10-31T05:36:35;13.60;99.90
5578;DHT22;2811;51.900;10.734;2022-10-31T05:39:02;13.50;99.90
5578;DHT22;2811;51.900;10.734;2022-10-31T05:41:29;13.40;99.90
5578;DHT22;2811;51.900;10.734;2022-10-31T05:43:56;13.20;99.90
5578;DHT22;2811;51.900;10.734;2022-10-31T05:46:24;13.10;99.90
5578;DHT22;2811;51.900;10.734;2022-10-31T05:48:50;13.10;99.90
5578;DHT22;2811;51.900;10.734;2022-10-31T05:51:17;13.00;99.90
5578;DHT22;2811;51.900;10.734;2022-10-31T05:53:46;12.80;99.90
5578;DHT22;2811;51.900;10.734;2022-10-31T05:56:12;12.80;99.90
5578;DHT22;2811;51.900;10.734;2022-10-31T05:58:39;12.80;99.90
5578;DHT22;2811;51.900;10.734;2022-10-31T06:01:06;12.70;99.90
5578;DHT22;2811;51.900;10.734;2022-10-31T06:03:34;12.70;99.90
5578;DHT22;2811;51.900;10.734;2022-10-31T06:06:01;12.60;99.90
5578;DHT22;2811;51.900;10.734;2022-10-31T06:08:27;12.60;99.90
5578;DHT22;2811;51.900;10.734;2022-10-31T06:10:54;12.50;99.90
5578;DHT22;2811;51.900;10.734;2022-10-31T06:13:21;12.50;99.90
5578;DHT22;2811;51.900;10.734;2022-10-31T06:15:47;12.50;99.90
5578;DHT22;2811;51.900;10.734;2022-10-31T06:18:14;12.50;99.90
5578;DHT22;2811;51.900;10.734;2022-10-31T06:20:42;12.40;99.90
5578;DHT22;2811;51.900;10.734;2022-10-31T06:23:09;12.40;99.90
5578;DHT22;2811;51.900;10.734;2022-10-31T06:25:36;12.40;99.90
5578;DHT22;2811;51.900;10.734;2022-10-31T06:28:03;12.40;99.90
5578;DHT22;2811;51.900;10.734;2022-10-31T06:30:30;12.30;99.90
5578;DHT22;2811;51.900;10.734;2022-10-31T06:33:01;12.20;99.90
5578;DHT22;2811;51.900;10.734;2022-10-31T06:35:28;12.10;99.90
5578;DHT22;2811;51.900;10.734;2022-10-31T06:37:56;12.10;99.90
5578;DHT22;2811;51.900;10.734;2022-10-31T06:40:23;12.20;99.90
5578;DHT22;2811;51.900;10.734;2022-10-31T06:42:56;12.30;99.90
5578;DHT22;2811;51.900;10.734;2022-10-31T06:45:24;12.30;99.90
5578;DHT22;2811;51.900;10.734;2022-10-31T06:47:51;12.40;99.90
5578;DHT22;2811;51.900;10.734;2022-10-31T06:50:18;12.50;99.90
5578;DHT22;2811;51.900;10.734;2022-10-31T06:52:50;12.40;99.90
5578;DHT22;2811;51.900;10.734;2022-10-31T06:55:18;12.40;99.90
5578;DHT22;2811;51.900;10.734;2022-10-31T06:57:50;12.40;99.90
5578;DHT22;2811;51.900;10.734;2022-10-31T07:00:17;12.50;99.90
5578;DHT22;2811;51.900;10.734;2022-10-31T07:02:53;12.50;99.90
5578;DHT22;2811;51.900;10.734;2022-10-31T07:05:19;12.50;99.90
5578;DHT22;2811;51.900;10.734;2022-10-31T07:07:46;12.60;99.90
5578;DHT22;2811;51.900;10.734;2022-10-31T07:10:13;12.60;99.90
5578;DHT22;2811;51.900;10.734;2022-10-31T07:12:41;12.60;99.90
5578;DHT22;2811;51.900;10.734;2022-10-31T07:15:08;12.70;99.90
5578;DHT22;2811;51.900;10.734;2022-10-31T07:17:35;12.80;99.90
5578;DHT22;2811;51.900;10.734;2022-10-31T07:20:02;12.90;99.90
5578;DHT22;2811;51.900;10.734;2022-10-31T07:22:33;13.00;99.90
5578;DHT22;2811;51.900;10.734;2022-10-31T07:24:59;13.00;99.90
5578;DHT22;2811;51.900;10.734;2022-10-31T07:27:26;13.20;99.90
5578;DHT22;2811;51.900;10.734;2022-10-31T07:29:54;13.30;99.90
5578;DHT22;2811;51.900;10.734;2022-10-31T07:32:21;13.40;99.90
5578;DHT22;2811;51.900;10.734;2022-10-31T07:34:48;13.50;99.90
5578;DHT22;2811;51.900;10.734;2022-10-31T07:37:14;13.60;99.90
5578;DHT22;2811;51.900;10.734;2022-10-31T07:39:41;13.70;99.90
5578;DHT22;2811;51.900;10.734;2022-10-31T07:42:08;13.80;99.90
5578;DHT22;2811;51.900;10.734;2022-10-31T07:44:34;13.90;99.90
5578;DHT22;2811;51.900;10.734;2022-10-31T07:47:03;14.20;99.90
5578;DHT22;2811;51.900;10.734;2022-10-31T07:49:29;14.50;99.90
5578;DHT22;2811;51.900;10.734;2022-10-31T07:51:56;14.60;99.90
5578;DHT22;2811;51.900;10.734;2022-10-31T07:54:23;14.90;99.90
5578;DHT22;2811;51.900;10.734;2022-10-31T07:56:49;15.10;99.90
5578;DHT22;2811;51.900;10.734;2022-10-31T07:59:16;15.10;99.90
5578;DHT22;2811;51.900;10.734;2022-10-31T08:01:43;15.20;99.90
5578;DHT22;2811;51.900;10.734;2022-10-31T08:04:11;15.40;99.90
5578;DHT22;2811;51.900;10.734;2022-10-31T08:06:38;15.60;99.90
5578;DHT22;2811;51.900;10.734;2022-10-31T08:09:05;15.90;99.90
5578;DHT22;2811;51.900;10.734;2022-10-31T08:11:32;16.20;99.90
5578;DHT22;2811;51.900;10.734;2022-10-31T08:13:59;16.50;99.90
5578;DHT22;2811;51.900;10.734;2022-10-31T08:16:26;16.50;99.90
5578;DHT22;2811;51.900;10.734;2022-10-31T08:18:53;16.70;99.90
5578;DHT22;2811;51.900;10.734;2022-10-31T08:21:22;16.80;99.90
5578;DHT22;2811;51.900;10.734;2022-10-31T08:23:49;16.90;99.90
5578;DHT22;2811;51.900;10.734;2022-10-31T08:26:16;16.90;99.90
5578;DHT22;2811;51.900;10.734;2022-10-31T08:28:42;17.30;99.90
5578;DHT22;2811;51.900;10.734;2022-10-31T08:31:09;17.60;99.90
5578;DHT22;2811;51.900;10.734;2022-10-31T08:33:36;17.60;99.90
5578;DHT22;2811;51.900;10.734;2022-10-31T08:36:03;17.70;99.90
5578;DHT22;2811;51.900;10.734;2022-10-31T08:38:31;17.70;99.90
5578;DHT22;2811;51.900;10.734;2022-10-31T08:40:58;17.80;99.90
5578;DHT22;2811;51.900;10.734;2022-10-31T08:43:24;17.70;99.90
5578;DHT22;2811;51.900;10.734;2022-10-31T08:45:51;17.70;99.90
5578;DHT22;2811;51.900;10.734;2022-10-31T08:48:20;17.70;99.90
5578;DHT22;2811;51.900;10.734;2022-10-31T08:50:47;17.60;99.90
5578;DHT22;2811;51.900;10.734;2022-10-31T08:53:15;17.50;99.90
5578;DHT22;2811;51.900;10.734;2022-10-31T08:55:44;17.40;99.90
5578;DHT22;2811;51.900;10.734;2022-10-31T08:58:13;17.50;99.90
5578;DHT22;2811;51.900;10.734;2022-10-31T09:00:40;17.70;99.90
5578;DHT22;2811;51.900;10.734;2022-10-31T09:03:11;17.90;99.90
5578;DHT22;2811;51.900;10.734;2022-10-31T09:05:38;17.90;99.90
5578;DHT22;2811;51.900;10.734;2022-10-31T09:08:05;18.10;99.90
5578;DHT22;2811;51.900;10.734;2022-10-31T09:10:33;18.40;99.90
5578;DHT22;2811;51.900;10.734;2022-10-31T09:13:06;18.30;99.90
5578;DHT22;2811;51.900;10.734;2022-10-31T09:15:33;18.20;99.90
5578;DHT22;2811;51.900;10.734;2022-10-31T09:18:00;18.20;99.90
5578;DHT22;2811;51.900;10.734;2022-10-31T09:20:27;18.20;99.90
5578;DHT22;2811;51.900;10.734;2022-10-31T09:22:58;18.20;99.90
5578;DHT22;2811;51.900;10.734;2022-10-31T09:25:25;18.10;99.90
5578;DHT22;2811;51.900;10.734;2022-10-31T09:27:56;18.20;99.90
5578;DHT22;2811;51.900;10.734;2022-10-31T09:30:25;18.20;99.90
5578;DHT22;2811;51.900;10.734;2022-10-31T09:32:55;18.10;99.90
5578;DHT22;2811;51.900;10.734;2022-10-31T09:35:22;18.20;99.90
5578;DHT22;2811;51.900;10.734;2022-10-31T09:37:53;18.20;99.90
5578;DHT22;2811;51.900;10.734;2022-10-31T09:40:20;18.20;99.90
5578;DHT22;2811;51.900;10.734;2022-10-31T09:42:54;18.30;99.90
5578;DHT22;2811;51.900;10.734;2022-10-31T09:45:27;18.40;99.90
5578;DHT22;2811;51.900;10.734;2022-10-31T09:48:15;18.40;99.90
5578;DHT22;2811;51.900;10.734;2022-10-31T09:50:46;18.30;99.90
5578;DHT22;2811;51.900;10.734;2022-10-31T09:53:22;18.30;99.90
5578;DHT22;2811;51.900;10.734;2022-10-31T09:55:49;18.20;99.90
5578;DHT22;2811;51.900;10.734;2022-10-31T09:58:23;18.20;99.90
5578;DHT22;2811;51.900;10.734;2022-10-31T10:00:54;18.40;99.90
5578;DHT22;2811;51.900;10.734;2022-10-31T10:03:31;18.40;99.90
5578;DHT22;2811;51.900;10.734;2022-10-31T10:06:07;18.50;99.90
5578;DHT22;2811;51.900;10.734;2022-10-31T10:08:35;18.60;99.90
5578;DHT22;2811;51.900;10.734;2022-10-31T10:11:14;18.80;99.90
5578;DHT22;2811;51.900;10.734;2022-10-31T10:13:57;18.70;99.90
5578;DHT22;2811;51.900;10.734;2022-10-31T10:16:39;18.80;99.90
5578;DHT22;2811;51.900;10.734;2022-10-31T10:19:24;18.90;99.90
5578;DHT22;2811;51.900;10.734;2022-10-31T10:21:59;18.90;99.90
5578;DHT22;2811;51.900;10.734;2022-10-31T10:24:35;18.90;99.90
5578;DHT22;2811;51.900;10.734;2022-10-31T10:27:15;19.00;99.90
5578;DHT22;2811;51.900;10.734;2022-10-31T10:29:47;19.10;99.90
5578;DHT22;2811;51.900;10.734;2022-10-31T10:32:22;19.00;99.90
5578;DHT22;2811;51.900;10.734;2022-10-31T10:34:51;19.20;99.90
5578;DHT22;2811;51.900;10.734;2022-10-31T10:37:24;19.20;99.90
5578;DHT22;2811;51.900;10.734;2022-10-31T10:39:55;19.40;99.90
5578;DHT22;2811;51.900;10.734;2022-10-31T10:42:26;19.30;99.90
5578;DHT22;2811;51.900;10.734;2022-10-31T10:45:15;19.70;99.90
5578;DHT22;2811;51.900;10.734;2022-10-31T10:48:06;19.20;99.90
5578;DHT22;2811;51.900;10.734;2022-10-31T10:50:39;19.40;99.90
5578;DHT22;2811;51.900;10.734;2022-10-31T10:53:18;19.50;99.90
5578;DHT22;2811;51.900;10.734;2022-10-31T10:56:00;19.50;99.90
5578;DHT22;2811;51.900;10.734;2022-10-31T10:58:28;19.60;99.90
5578;DHT22;2811;51.900;10.734;2022-10-31T11:00:55;19.70;99.90
5578;DHT22;2811;51.900;10.734;2022-10-31T11:03:24;19.60;99.90
5578;DHT22;2811;51.900;10.734;2022-10-31T11:05:52;19.70;99.90
5578;DHT22;2811;51.900;10.734;2022-10-31T11:08:25;19.70;99.90
5578;DHT22;2811;51.900;10.734;2022-10-31T11:10:59;19.70;99.90
5578;DHT22;2811;51.900;10.734;2022-10-31T11:13:27;19.60;99.90
5578;DHT22;2811;51.900;10.734;2022-10-31T11:15:58;19.60;99.90
5578;DHT22;2811;51.900;10.734;2022-10-31T11:18:29;19.60;99.90
5578;DHT22;2811;51.900;10.734;2022-10-31T11:20:58;19.80;99.90
5578;DHT22;2811;51.900;10.734;2022-10-31T11:23:26;19.70;99.90
5578;DHT22;2811;51.900;10.734;2022-10-31T11:25:56;19.80;99.90
5578;DHT22;2811;51.900;10.734;2022-10-31T11:28:23;19.80;99.90
5578;DHT22;2811;51.900;10.734;2022-10-31T11:30:52;19.80;99.90
5578;DHT22;2811;51.900;10.734;2022-10-31T11:33:29;19.80;99.90
5578;DHT22;2811;51.900;10.734;2022-10-31T11:35:57;19.80;99.90
5578;DHT22;2811;51.900;10.734;2022-10-31T11:38:35;19.90;99.90
5578;DHT22;2811;51.900;10.734;2022-10-31T11:41:09;19.80;99.90
5578;DHT22;2811;51.900;10.734;2022-10-31T11:43:37;19.40;99.90
5578;DHT22;2811;51.900;10.734;2022-10-31T11:46:09;19.80;99.90
5578;DHT22;2811;51.900;10.734;2022-10-31T11:48:38;19.60;99.90
5578;DHT22;2811;51.900;10.734;2022-10-31T11:51:05;19.70;99.90
5578;DHT22;2811;51.900;10.734;2022-10-31T11:53:34;19.80;99.90
5578;DHT22;2811;51.900;10.734;2022-10-31T11:56:10;19.60;99.90
5578;DHT22;2811;51.900;10.734;2022-10-31T11:58:39;19.50;99.90
5578;DHT22;2811;51.900;10.734;2022-10-31T12:01:24;19.50;99.90
5578;DHT22;2811;51.900;10.734;2022-10-31T12:03:59;19.40;99.90
5578;DHT22;2811;51.900;10.734;2022-10-31T12:06:31;19.40;99.90
5578;DHT22;2811;51.900;10.734;2022-10-31T12:08:59;19.30;99.90
5578;DHT22;2811;51.900;10.734;2022-10-31T12:11:41;19.30;99.90
5578;DHT22;2811;51.900;10.734;2022-10-31T12:14:20;19.20;99.90
5578;DHT22;2811;51.900;10.734;2022-10-31T12:16:52;19.20;99.90
5578;DHT22;2811;51.900;10.734;2022-10-31T12:19:30;19.60;99.90
5578;DHT22;2811;51.900;10.734;2022-10-31T12:22:05;19.20;99.90
5578;DHT22;2811;51.900;10.734;2022-10-31T12:24:59;19.20;99.90
5578;DHT22;2811;51.900;10.734;2022-10-31T12:27:39;19.10;99.90
5578;DHT22;2811;51.900;10.734;2022-10-31T12:30:17;19.00;99.90
5578;DHT22;2811;51.900;10.734;2022-10-31T12:33:13;18.90;99.90
5578;DHT22;2811;51.900;10.734;2022-10-31T12:35:54;18.90;99.90
5578;DHT22;2811;51.900;10.734;2022-10-31T12:38:42;18.80;99.90
5578;DHT22;2811;51.900;10.734;2022-10-31T12:41:27;18.80;99.90
5578;DHT22;2811;51.900;10.734;2022-10-31T12:44:00;18.80;99.90
5578;DHT22;2811;51.900;10.734;2022-10-31T12:46:42;18.80;99.90
5578;DHT22;2811;51.900;10.734;2022-10-31T12:49:31;18.70;99.90
5578;DHT22;2811;51.900;10.734;2022-10-31T12:52:15;18.80;99.90
5578;DHT22;2811;51.900;10.734;2022-10-31T12:55:00;18.60;99.90
5578;DHT22;2811;51.900;10.734;2022-10-31T12:57:31;18.60;99.90
5578;DHT22;2811;51.900;10.734;2022-10-31T13:00:02;18.50;99.90
5578;DHT22;2811;51.900;10.734;2022-10-31T13:02:33;18.50;99.90
5578;DHT22;2811;51.900;10.734;2022-10-31T13:05:05;18.40;99.90
5578;DHT22;2811;51.900;10.734;2022-10-31T13:07:39;18.50;99.90
5578;DHT22;2811;51.900;10.734;2022-10-31T13:10:15;18.50;99.90
5578;DHT22;2811;51.900;10.734;2022-10-31T13:12:44;18.40;99.90
5578;DHT22;2811;51.900;10.734;2022-10-31T13:15:16;18.40;99.90
5578;DHT22;2811;51.900;10.734;2022-10-31T13:17:46;18.40;99.90
5578;DHT22;2811;51.900;10.734;2022-10-31T13:20:20;18.40;99.90
5578;DHT22;2811;51.900;10.734;2022-10-31T13:22:52;18.40;99.90
5578;DHT22;2811;51.900;10.734;2022-10-31T13:25:23;18.30;99.90
5578;DHT22;2811;51.900;10.734;2022-10-31T13:27:54;18.20;99.90
5578;DHT22;2811;51.900;10.734;2022-10-31T13:30:24;18.10;99.90
5578;DHT22;2811;51.900;10.734;2022-10-31T13:32:55;18.30;99.90
5578;DHT22;2811;51.900;10.734;2022-10-31T13:35:34;18.10;99.90
5578;DHT22;2811;51.900;10.734;2022-10-31T13:38:20;18.00;99.90
5578;DHT22;2811;51.900;10.734;2022-10-31T13:40:53;18.10;99.90
5578;DHT22;2811;51.900;10.734;2022-10-31T13:43:30;18.10;99.90
5578;DHT22;2811;51.900;10.734;2022-10-31T13:45:58;18.10;99.90
5578;DHT22;2811;51.900;10.734;2022-10-31T13:48:36;18.30;99.90
5578;DHT22;2811;51.900;10.734;2022-10-31T13:51:05;17.90;99.90
5578;DHT22;2811;51.900;10.734;2022-10-31T13:53:40;17.90;99.90
5578;DHT22;2811;51.900;10.734;2022-10-31T13:56:17;17.90;99.90
5578;DHT22;2811;51.900;10.734;2022-10-31T13:59:15;17.70;99.90
5578;DHT22;2811;51.900;10.734;2022-10-31T14:01:51;17.80;99.90
5578;DHT22;2811;51.900;10.734;2022-10-31T14:04:20;17.70;99.90
5578;DHT22;2811;51.900;10.734;2022-10-31T14:06:54;17.70;99.90
5578;DHT22;2811;51.900;10.734;2022-10-31T14:09:28;17.60;99.90
5578;DHT22;2811;51.900;10.734;2022-10-31T14:11:56;17.60;99.90
5578;DHT22;2811;51.900;10.734;2022-10-31T14:17:22;17.40;99.90
5578;DHT22;2811;51.900;10.734;2022-10-31T14:20:02;17.30;99.90
5578;DHT22;2811;51.900;10.734;2022-10-31T14:22:30;17.40;99.90
5578;DHT22;2811;51.900;10.734;2022-10-31T14:24:59;17.30;99.90
5578;DHT22;2811;51.900;10.734;2022-10-31T14:27:45;17.30;99.90
5578;DHT22;2811;51.900;10.734;2022-10-31T14:30:20;17.30;99.90
5578;DHT22;2811;51.900;10.734;2022-10-31T14:32:51;17.20;99.90
5578;DHT22;2811;51.900;10.734;2022-10-31T14:35:20;17.20;99.90
5578;DHT22;2811;51.900;10.734;2022-10-31T14:38:03;17.20;99.90
5578;DHT22;2811;51.900;10.734;2022-10-31T14:40:42;17.10;99.90
5578;DHT22;2811;51.900;10.734;2022-10-31T14:43:38;17.10;99.90
5578;DHT22;2811;51.900;10.734;2022-10-31T14:46:15;17.10;99.90
5578;DHT22;2811;51.900;10.734;2022-10-31T14:49:12;17.00;99.90
5578;DHT22;2811;51.900;10.734;2022-10-31T14:51:44;16.90;99.90
5578;DHT22;2811;51.900;10.734;2022-10-31T14:54:15;16.90;99.90
5578;DHT22;2811;51.900;10.734;2022-10-31T14:56:49;16.80;99.90
5578;DHT22;2811;51.900;10.734;2022-10-31T14:59:24;16.70;99.90
5578;DHT22;2811;51.900;10.734;2022-10-31T15:01:56;16.80;99.90
5578;DHT22;2811;51.900;10.734;2022-10-31T15:04:25;16.70;99.90
5578;DHT22;2811;51.900;10.734;2022-10-31T15:07:00;16.70;99.90
5578;DHT22;2811;51.900;10.734;2022-10-31T15:09:31;16.70;99.90
5578;DHT22;2811;51.900;10.734;2022-10-31T15:12:00;16.60;99.90
5578;DHT22;2811;51.900;10.734;2022-10-31T15:14:28;16.60;99.90
5578;DHT22;2811;51.900;10.734;2022-10-31T15:16:57;16.50;99.90
5578;DHT22;2811;51.900;10.734;2022-10-31T15:19:26;16.50;99.90
5578;DHT22;2811;51.900;10.734;2022-10-31T15:21:55;16.40;99.90
5578;DHT22;2811;51.900;10.734;2022-10-31T15:24:24;16.30;99.90
5578;DHT22;2811;51.900;10.734;2022-10-31T15:26:52;16.30;99.90
5578;DHT22;2811;51.900;10.734;2022-10-31T15:29:22;16.20;99.90
5578;DHT22;2811;51.900;10.734;2022-10-31T15:31:50;16.10;99.90
5578;DHT22;2811;51.900;10.734;2022-10-31T15:34:21;16.00;99.90
5578;DHT22;2811;51.900;10.734;2022-10-31T15:36:49;16.00;99.90
5578;DHT22;2811;51.900;10.734;2022-10-31T15:39:16;16.00;99.90
5578;DHT22;2811;51.900;10.734;2022-10-31T15:41:49;15.90;99.90
5578;DHT22;2811;51.900;10.734;2022-10-31T15:44:22;15.90;99.90
5578;DHT22;2811;51.900;10.734;2022-10-31T15:46:55;15.80;99.90
5578;DHT22;2811;51.900;10.734;2022-10-31T15:49:32;15.80;99.90
5578;DHT22;2811;51.900;10.734;2022-10-31T15:52:04;15.90;99.90
5578;DHT22;2811;51.900;10.734;2022-10-31T15:54:32;15.90;99.90
5578;DHT22;2811;51.900;10.734;2022-10-31T15:56:59;15.70;99.90
5578;DHT22;2811;51.900;10.734;2022-10-31T15:59:28;15.70;99.90
5578;DHT22;2811;51.900;10.734;2022-10-31T16:02:00;15.50;99.90
5578;DHT22;2811;51.900;10.734;2022-10-31T16:04:27;15.50;99.90
5578;DHT22;2811;51.900;10.734;2022-10-31T16:07:00;15.30;99.90
5578;DHT22;2811;51.900;10.734;2022-10-31T16:09:28;15.20;99.90
5578;DHT22;2811;51.900;10.734;2022-10-31T16:11:56;15.20;99.90
5578;DHT22;2811;51.900;10.734;2022-10-31T16:14:28;15.10;99.90